Time;durP1;ratioP1;P1;durP2;ratioP2;P2;SDS_P1;SDS_P2;PMS_P1;PMS_P2;Temp;Humidity;BMP_temperature;BMP_pressure;BME280_temperature;BME280_humidity;BME280_pressure;Samples;Min_cycle;Max_cycle;Signal;HPM_P1;HPM_P2
2021/03/10 00:01:55;;;;;;;114.87;52.93;;;;;;;;;;5139611;27;20233;-72
2021/03/10 00:04:41;;;;;;;120.30;55.73;;;;;;;;;;5140206;27;20702;-72
2021/03/10 00:07:30;;;;;;;119.40;54.53;;;;;;;;;;5140283;27;20194;-72
2021/03/10 00:10:16;;;;;;;114.00;51.57;;;;;;;;;;5139883;27;20251;-72
2021/03/10 00:13:02;;;;;;;129.50;55.90;;;;;;;;;;5139077;27;20189;-72
2021/03/10 00:15:51;;;;;;;128.87;57.93;;;;;;;;;;5139859;27;20603;-72
2021/03/10 00:18:37;;;;;;;133.53;58.57;;;;;;;;;;5140241;27;20419;-72
2021/03/10 00:21:22;;;;;;;115.80;51.17;;;;;;;;;;5139526;27;20364;-72
2021/03/10 00:24:08;;;;;;;123.33;53.03;;;;;;;;;;5140012;27;20611;-72
2021/03/10 00:26:54;;;;;;;122.40;56.17;;;;;;;;;;5139987;27;20280;-72
2021/03/10 00:29:40;;;;;;;124.30;55.97;;;;;;;;;;5139929;27;20370;-72
2021/03/10 00:32:27;;;;;;;127.90;55.03;;;;;;;;;;5140032;27;20198;-72
2021/03/10 00:35:12;;;;;;;133.37;56.87;;;;;;;;;;5139768;27;20343;-72
2021/03/10 00:37:58;;;;;;;129.87;55.10;;;;;;;;;;5139600;27;20485;-72
2021/03/10 00:40:45;;;;;;;120.20;55.03;;;;;;;;;;5139988;27;20220;-72
2021/03/10 00:43:31;;;;;;;121.37;53.50;;;;;;;;;;5139985;27;20213;-72
2021/03/10 00:46:17;;;;;;;113.30;53.00;;;;;;;;;;5139882;27;20201;-72
2021/03/10 00:49:04;;;;;;;121.37;53.57;;;;;;;;;;5140029;27;20478;-72
2021/03/10 00:51:50;;;;;;;116.47;51.60;;;;;;;;;;5139736;27;20198;-72
2021/03/10 00:54:37;;;;;;;125.37;56.83;;;;;;;;;;5139508;27;20194;-72
2021/03/10 00:57:23;;;;;;;122.50;55.07;;;;;;;;;;5139765;27;20198;-72
2021/03/10 01:00:11;;;;;;;122.50;54.23;;;;;;;;;;5139619;27;20322;-72
2021/03/10 01:02:56;;;;;;;124.47;58.07;;;;;;;;;;5139738;27;20472;-72
2021/03/10 01:05:43;;;;;;;100.10;49.90;;;;;;;;;;5139674;27;20256;-72
2021/03/10 01:08:29;;;;;;;120.23;54.90;;;;;;;;;;5139459;27;20621;-72
2021/03/10 01:11:14;;;;;;;112.90;53.67;;;;;;;;;;5138967;27;20583;-73
2021/03/10 01:14:01;;;;;;;116.63;52.70;;;;;;;;;;5139313;27;20194;-72
2021/03/10 01:16:46;;;;;;;103.00;49.50;;;;;;;;;;5139730;27;20193;-72
2021/03/10 01:19:34;;;;;;;128.07;56.13;;;;;;;;;;5139228;27;20201;-72
2021/03/10 01:22:20;;;;;;;109.30;50.83;;;;;;;;;;5139222;27;20220;-72
2021/03/10 01:25:06;;;;;;;113.73;50.53;;;;;;;;;;5139000;27;20213;-72
2021/03/10 01:27:55;;;;;;;117.17;52.87;;;;;;;;;;5139164;27;20279;-72
2021/03/10 01:30:41;;;;;;;126.50;56.20;;;;;;;;;;5138935;27;20611;-72
2021/03/10 01:33:29;;;;;;;118.73;52.30;;;;;;;;;;5138728;27;20201;-72
2021/03/10 01:36:28;;;;;;;120.67;53.53;;;;;;;;;;5138980;27;20193;-72
2021/03/10 01:39:14;;;;;;;107.90;51.93;;;;;;;;;;5138599;27;20197;-72
2021/03/10 01:42:00;;;;;;;129.47;56.50;;;;;;;;;;5138514;27;20229;-72
2021/03/10 01:44:46;;;;;;;112.73;51.53;;;;;;;;;;5138859;27;20912;-72
2021/03/10 01:47:35;;;;;;;112.23;49.57;;;;;;;;;;5138760;27;20289;-72
2021/03/10 01:50:21;;;;;;;108.33;48.70;;;;;;;;;;5138917;27;20282;-72
2021/03/10 01:53:07;;;;;;;111.90;48.87;;;;;;;;;;5138533;27;20299;-72
2021/03/10 01:55:54;;;;;;;123.70;51.80;;;;;;;;;;5138838;27;20201;-72
2021/03/10 01:58:40;;;;;;;119.20;52.77;;;;;;;;;;5138926;27;20721;-72
2021/03/10 02:01:26;;;;;;;125.30;52.67;;;;;;;;;;5138561;27;20246;-72
2021/03/10 02:04:13;;;;;;;122.87;53.47;;;;;;;;;;5138690;27;20607;-72
2021/03/10 02:07:06;;;;;;;141.60;58.57;;;;;;;;;;5138443;27;20193;-72
2021/03/10 02:09:57;;;;;;;150.83;59.13;;;;;;;;;;5138118;27;20202;-72
2021/03/10 02:12:49;;;;;;;143.10;57.90;;;;;;;;;;5138153;27;20225;-72
2021/03/10 02:15:39;;;;;;;134.87;56.67;;;;;;;;;;5139012;27;20197;-73
2021/03/10 02:18:26;;;;;;;174.27;64.53;;;;;;;;;;5138027;27;20202;-72
2021/03/10 02:21:19;;;;;;;179.17;68.63;;;;;;;;;;5137846;27;20359;-72
2021/03/10 02:24:12;;;;;;;162.33;61.60;;;;;;;;;;5137988;27;20198;-72
2021/03/10 02:27:32;;;;;;;177.27;65.07;;;;;;;;;;5138258;27;20723;-72
2021/03/10 02:30:20;;;;;;;223.73;73.20;;;;;;;;;;5134378;27;20432;-72
2021/03/10 02:33:08;;;;;;;192.27;69.27;;;;;;;;;;5138035;28;20209;-72
2021/03/10 02:35:56;;;;;;;189.80;70.30;;;;;;;;;;5137927;28;20480;-72
2021/03/10 02:38:43;;;;;;;229.90;75.00;;;;;;;;;;5137816;28;20295;-72
2021/03/10 02:41:29;;;;;;;280.80;86.27;;;;;;;;;;5139397;28;20336;-72
2021/03/10 02:44:15;;;;;;;150.73;62.40;;;;;;;;;;5143558;27;20285;-72
2021/03/10 02:47:02;;;;;;;118.23;55.87;;;;;;;;;;5142084;27;20202;-72
2021/03/10 02:49:48;;;;;;;133.43;56.23;;;;;;;;;;5142021;27;20601;-72
2021/03/10 02:52:34;;;;;;;132.20;56.63;;;;;;;;;;5142179;27;20267;-72
2021/03/10 02:55:20;;;;;;;173.53;65.70;;;;;;;;;;5141532;27;20197;-72
2021/03/10 02:58:07;;;;;;;257.07;78.50;;;;;;;;;;5141717;27;20201;-72
2021/03/10 03:00:53;;;;;;;179.20;66.03;;;;;;;;;;5141908;27;20615;-72
2021/03/10 03:03:30;;;;;;;346.13;95.90;;;;;;;;;;5139538;27;20602;-34
2021/03/10 03:06:16;;;;;;;226.47;73.20;;;;;;;;;;5141584;27;20336;-35
2021/03/10 03:09:05;;;;;;;169.83;64.80;;;;;;;;;;5141724;27;20267;-34
2021/03/10 03:11:51;;;;;;;178.83;66.63;;;;;;;;;;5141738;27;20194;-35
2021/03/10 03:14:40;;;;;;;118.60;52.43;;;;;;;;;;5141821;27;20197;-36
2021/03/10 03:17:26;;;;;;;154.10;58.17;;;;;;;;;;5141237;27;20201;-35
2021/03/10 03:20:15;;;;;;;206.23;71.43;;;;;;;;;;5141468;27;20205;-35
2021/03/10 03:23:03;;;;;;;185.37;66.93;;;;;;;;;;5141671;27;20225;-36
2021/03/10 03:25:50;;;;;;;160.20;63.47;;;;;;;;;;5141650;27;20194;-32
2021/03/10 03:28:36;;;;;;;184.13;66.30;;;;;;;;;;5141586;27;20243;-35
2021/03/10 03:31:23;;;;;;;176.40;64.40;;;;;;;;;;5141451;27;20193;-34
2021/03/10 03:34:09;;;;;;;186.60;64.90;;;;;;;;;;5140964;27;20339;-34
2021/03/10 03:36:56;;;;;;;193.43;70.73;;;;;;;;;;5140730;27;20201;-35
2021/03/10 03:39:41;;;;;;;159.47;62.60;;;;;;;;;;5140118;27;20258;-36
2021/03/10 03:42:30;;;;;;;165.60;62.50;;;;;;;;;;5139804;27;20282;-33
2021/03/10 03:45:17;;;;;;;176.33;65.67;;;;;;;;;;5141067;27;20340;-37
2021/03/10 03:48:02;;;;;;;151.50;57.77;;;;;;;;;;5140745;27;20591;-32
2021/03/10 03:50:49;;;;;;;152.53;60.07;;;;;;;;;;5140878;27;20198;-33
2021/03/10 03:53:35;;;;;;;190.17;67.00;;;;;;;;;;5140979;27;20193;-34
2021/03/10 03:56:21;;;;;;;184.07;64.70;;;;;;;;;;5139994;27;20201;-33
2021/03/10 03:59:10;;;;;;;178.63;63.20;;;;;;;;;;5140697;27;20359;-37
2021/03/10 04:01:55;;;;;;;174.00;60.23;;;;;;;;;;5140102;27;20654;-35
2021/03/10 04:04:41;;;;;;;231.80;73.27;;;;;;;;;;5140437;27;20197;-36
2021/03/10 04:07:27;;;;;;;177.17;64.47;;;;;;;;;;5139996;27;20331;-35
2021/03/10 04:10:13;;;;;;;165.03;61.50;;;;;;;;;;5140556;27;20641;-33
2021/03/10 04:13:00;;;;;;;133.53;57.73;;;;;;;;;;5140487;27;20197;-34
2021/03/10 04:15:46;;;;;;;118.67;51.80;;;;;;;;;;5140579;27;20294;-33
2021/03/10 04:18:32;;;;;;;122.90;54.13;;;;;;;;;;5140426;27;20327;-33
2021/03/10 04:21:18;;;;;;;103.50;47.20;;;;;;;;;;5140472;27;20213;-36
2021/03/10 04:24:05;;;;;;;109.77;49.07;;;;;;;;;;5140207;27;20653;-35
2021/03/10 04:26:52;;;;;;;106.93;51.23;;;;;;;;;;5140276;27;20193;-33
2021/03/10 04:29:37;;;;;;;100.87;48.37;;;;;;;;;;5140045;27;20608;-34
2021/03/10 04:32:24;;;;;;;95.33;48.30;;;;;;;;;;5140130;27;20193;-35
2021/03/10 04:35:10;;;;;;;127.47;51.83;;;;;;;;;;5140304;27;20194;-38
2021/03/10 04:37:56;;;;;;;104.97;48.67;;;;;;;;;;5139938;27;20193;-35
2021/03/10 04:40:42;;;;;;;104.67;48.83;;;;;;;;;;5140040;27;20201;-35
2021/03/10 04:43:28;;;;;;;87.80;46.33;;;;;;;;;;5139574;27;20298;-32
2021/03/10 04:46:15;;;;;;;102.50;48.70;;;;;;;;;;5139716;27;20197;-36
2021/03/10 04:49:00;;;;;;;107.70;48.57;;;;;;;;;;5139790;27;20213;-34
2021/03/10 04:51:46;;;;;;;213.97;62.80;;;;;;;;;;5139785;27;20194;-32
2021/03/10 04:54:32;;;;;;;146.63;54.70;;;;;;;;;;5139075;27;20697;-33
2021/03/10 04:57:20;;;;;;;132.30;53.23;;;;;;;;;;5139116;27;20286;-34
2021/03/10 05:00:11;;;;;;;115.77;49.73;;;;;;;;;;5139133;27;20220;-33
2021/03/10 05:02:57;;;;;;;105.90;49.80;;;;;;;;;;5139129;27;20659;-34
2021/03/10 05:05:43;;;;;;;99.17;48.60;;;;;;;;;;5138212;27;20540;-35
2021/03/10 05:08:28;;;;;;;131.90;55.27;;;;;;;;;;5138683;27;20193;-36
2021/03/10 05:11:14;;;;;;;110.90;51.07;;;;;;;;;;5139245;27;20649;-32
2021/03/10 05:14:00;;;;;;;123.63;54.63;;;;;;;;;;5138120;27;20201;-33
2021/03/10 05:16:47;;;;;;;106.53;50.23;;;;;;;;;;5139254;27;20213;-34
2021/03/10 05:19:33;;;;;;;99.70;50.90;;;;;;;;;;5138590;27;20545;-36
2021/03/10 05:22:22;;;;;;;85.27;48.20;;;;;;;;;;5138774;27;20233;-33
2021/03/10 05:25:09;;;;;;;97.37;48.73;;;;;;;;;;5139112;27;20197;-35
2021/03/10 05:27:54;;;;;;;109.73;52.07;;;;;;;;;;5138910;27;20205;-32
2021/03/10 05:30:42;;;;;;;99.93;51.93;;;;;;;;;;5138772;27;20526;-39
2021/03/10 05:33:29;;;;;;;123.27;53.40;;;;;;;;;;5138361;27;20205;-34
2021/03/10 05:36:15;;;;;;;133.13;57.60;;;;;;;;;;5138336;27;20213;-37
2021/03/10 05:39:00;;;;;;;133.40;55.93;;;;;;;;;;5138833;27;20254;-40
2021/03/10 05:41:49;;;;;;;127.87;55.07;;;;;;;;;;5138667;27;20626;-36
2021/03/10 05:44:34;;;;;;;125.93;55.07;;;;;;;;;;5138620;27;20197;-37
2021/03/10 05:47:20;;;;;;;149.43;59.60;;;;;;;;;;5138184;27;20196;-37
2021/03/10 05:50:09;;;;;;;125.73;54.00;;;;;;;;;;5138454;27;20197;-35
2021/03/10 05:52:56;;;;;;;153.90;58.17;;;;;;;;;;5138416;27;20189;-33
2021/03/10 05:55:42;;;;;;;129.57;59.80;;;;;;;;;;5137906;27;20316;-38
2021/03/10 05:58:28;;;;;;;114.80;55.50;;;;;;;;;;5137385;27;20209;-41
2021/03/10 06:01:14;;;;;;;131.53;58.03;;;;;;;;;;5138075;27;20611;-36
2021/03/10 06:04:00;;;;;;;132.60;71.40;;;;;;;;;;5138396;27;20193;-39
2021/03/10 06:06:47;;;;;;;116.83;57.37;;;;;;;;;;5137888;27;20259;-41
2021/03/10 06:09:59;;;;;;;128.20;63.20;;;;;;;;;;5138100;27;20200;-41
2021/03/10 06:12:45;;;;;;;107.23;53.50;;;;;;;;;;5136082;27;20359;-41
2021/03/10 06:15:40;;;;;;;140.50;58.80;;;;;;;;;;5135656;27;20221;-40
2021/03/10 06:18:27;;;;;;;126.07;58.27;;;;;;;;;;5135998;27;20279;-40
2021/03/10 06:21:14;;;;;;;127.17;58.50;;;;;;;;;;5135973;27;20193;-40
2021/03/10 06:24:01;;;;;;;133.00;64.70;;;;;;;;;;5135900;27;20193;-41
2021/03/10 06:26:53;;;;;;;135.10;63.57;;;;;;;;;;5135756;27;20197;-41
2021/03/10 06:29:39;;;;;;;103.37;53.77;;;;;;;;;;5136102;27;20661;-41
2021/03/10 06:32:26;;;;;;;130.40;56.87;;;;;;;;;;5135572;27;20359;-40
2021/03/10 06:35:24;;;;;;;123.87;58.50;;;;;;;;;;5136123;28;20217;-41
2021/03/10 06:38:10;;;;;;;106.70;51.07;;;;;;;;;;5135146;28;20205;-41
2021/03/10 06:40:57;;;;;;;119.33;53.10;;;;;;;;;;5136410;28;20197;-41
2021/03/10 06:43:43;;;;;;;127.27;55.37;;;;;;;;;;5122506;28;20206;-41
2021/03/10 06:46:29;;;;;;;138.80;56.47;;;;;;;;;;5116776;28;20335;-43
2021/03/10 06:49:16;;;;;;;165.73;65.37;;;;;;;;;;5116350;28;20221;-40
2021/03/10 06:52:07;;;;;;;155.87;67.77;;;;;;;;;;5116290;28;20226;-36
2021/03/10 06:54:56;;;;;;;154.43;62.50;;;;;;;;;;5116416;28;20602;-39
2021/03/10 06:57:43;;;;;;;179.37;72.73;;;;;;;;;;5116797;28;20585;-39
2021/03/10 07:00:29;;;;;;;138.97;59.03;;;;;;;;;;5116478;28;20198;-41
2021/03/10 07:03:15;;;;;;;258.80;134.57;;;;;;;;;;5116093;28;20781;-41
2021/03/10 07:06:04;;;;;;;237.80;123.17;;;;;;;;;;5116747;28;20210;-41
2021/03/10 07:08:50;;;;;;;182.00;77.10;;;;;;;;;;5115249;28;20207;-41
2021/03/10 07:11:36;;;;;;;164.53;71.07;;;;;;;;;;5115914;28;20199;-39
2021/03/10 07:14:26;;;;;;;145.47;60.03;;;;;;;;;;5115958;28;20344;-40
2021/03/10 07:17:12;;;;;;;148.47;59.13;;;;;;;;;;5116499;28;20199;-42
2021/03/10 07:19:58;;;;;;;163.57;66.60;;;;;;;;;;5116555;28;20202;-41
2021/03/10 07:22:47;;;;;;;135.70;58.33;;;;;;;;;;5116576;28;20506;-40
2021/03/10 07:25:34;;;;;;;148.00;64.30;;;;;;;;;;5116139;28;20284;-39
2021/03/10 07:28:25;;;;;;;159.50;63.50;;;;;;;;;;5116687;28;20476;-41
2021/03/10 07:31:18;;;;;;;134.97;58.70;;;;;;;;;;5119923;28;20203;-41
2021/03/10 07:34:03;;;;;;;148.23;64.37;;;;;;;;;;5119826;28;20259;-39
2021/03/10 07:36:49;;;;;;;153.87;69.17;;;;;;;;;;5120113;28;20202;-41
2021/03/10 07:39:35;;;;;;;187.60;85.30;;;;;;;;;;5119810;28;20200;-40
2021/03/10 07:42:20;;;;;;;139.87;61.70;;;;;;;;;;5119503;28;20196;-40
2021/03/10 07:45:08;;;;;;;135.40;57.70;;;;;;;;;;5119376;28;20262;-41
2021/03/10 07:47:55;;;;;;;111.50;50.70;;;;;;;;;;5119431;28;20456;-40
2021/03/10 07:50:42;;;;;;;111.70;49.23;;;;;;;;;;5119697;28;20558;-41
2021/03/10 07:53:34;;;;;;;118.37;54.33;;;;;;;;;;5118884;28;20232;-40
2021/03/10 07:56:26;;;;;;;102.67;48.23;;;;;;;;;;5119071;28;20209;-40
2021/03/10 07:59:12;;;;;;;106.23;48.47;;;;;;;;;;5119024;28;20199;-41
2021/03/10 08:02:05;;;;;;;103.70;50.07;;;;;;;;;;5118670;28;20239;-41
2021/03/10 08:04:59;;;;;;;130.97;54.60;;;;;;;;;;5119178;28;20205;-41
2021/03/10 08:07:44;;;;;;;112.43;53.43;;;;;;;;;;5118888;28;20200;-43
2021/03/10 08:10:30;;;;;;;111.60;50.63;;;;;;;;;;5118953;28;20394;-41
2021/03/10 08:13:17;;;;;;;103.07;49.73;;;;;;;;;;5118680;28;20231;-40
2021/03/10 08:16:03;;;;;;;99.10;49.50;;;;;;;;;;5118767;28;20271;-40
2021/03/10 08:18:49;;;;;;;140.53;92.33;;;;;;;;;;5119191;28;20205;-39
2021/03/10 08:21:47;;;;;;;94.37;46.27;;;;;;;;;;5118400;28;20567;-39
2021/03/10 08:24:35;;;;;;;81.77;44.43;;;;;;;;;;5118722;28;20604;-40
2021/03/10 08:27:29;;;;;;;79.40;41.37;;;;;;;;;;5118747;28;20345;-38
2021/03/10 08:30:15;;;;;;;78.07;42.23;;;;;;;;;;5118744;28;20200;-40
2021/03/10 08:33:03;;;;;;;78.70;41.40;;;;;;;;;;5118036;28;20323;-37
2021/03/10 08:35:49;;;;;;;67.30;38.20;;;;;;;;;;5117611;28;20237;-38
2021/03/10 08:38:39;;;;;;;70.87;39.37;;;;;;;;;;5117862;28;20203;-40
2021/03/10 08:41:27;;;;;;;67.00;39.77;;;;;;;;;;5117181;28;20203;-37
2021/03/10 08:44:28;;;;;;;69.83;38.53;;;;;;;;;;5118261;28;20198;-40
2021/03/10 08:47:15;;;;;;;64.23;38.40;;;;;;;;;;5117797;28;20620;-40
2021/03/10 08:50:03;;;;;;;59.13;35.77;;;;;;;;;;5118311;28;20202;-41
2021/03/10 08:52:49;;;;;;;50.93;32.40;;;;;;;;;;5118344;28;20323;-40
2021/03/10 08:55:36;;;;;;;55.57;34.20;;;;;;;;;;5117921;28;20201;-41
2021/03/10 08:58:23;;;;;;;60.23;35.43;;;;;;;;;;5118640;28;20202;-41
2021/03/10 09:01:15;;;;;;;60.20;36.03;;;;;;;;;;5117617;28;20278;-41
2021/03/10 09:04:03;;;;;;;54.73;34.53;;;;;;;;;;5121424;27;20200;-41
2021/03/10 09:06:48;;;;;;;51.90;32.97;;;;;;;;;;5118302;28;20260;-39
2021/03/10 09:09:34;;;;;;;56.50;36.13;;;;;;;;;;5118204;28;20342;-40
2021/03/10 09:12:21;;;;;;;50.67;31.47;;;;;;;;;;5118003;28;20260;-37
2021/03/10 09:15:10;;;;;;;47.67;30.47;;;;;;;;;;5118068;28;20199;-38
2021/03/10 09:17:59;;;;;;;44.50;31.33;;;;;;;;;;5118026;28;20257;-40
2021/03/10 09:20:45;;;;;;;45.43;30.37;;;;;;;;;;5137409;27;20457;-36
2021/03/10 09:23:38;;;;;;;42.20;24.97;;;;;;;;;;5137979;27;20340;-41
2021/03/10 09:26:34;;;;;;;40.23;26.77;;;;;;;;;;5137830;27;20287;-37
2021/03/10 09:29:21;;;;;;;35.67;24.27;;;;;;;;;;5138527;27;20198;-38
2021/03/10 09:32:06;;;;;;;39.33;24.57;;;;;;;;;;5138358;27;20468;-38
2021/03/10 09:34:56;;;;;;;36.30;24.73;;;;;;;;;;5138059;27;20210;-40
2021/03/10 09:37:49;;;;;;;31.53;21.77;;;;;;;;;;5138403;27;20197;-40
2021/03/10 09:40:37;;;;;;;34.33;22.10;;;;;;;;;;5137679;27;20193;-39
2021/03/10 09:43:25;;;;;;;30.83;22.43;;;;;;;;;;5137449;27;20469;-35
2021/03/10 09:46:11;;;;;;;35.40;21.87;;;;;;;;;;5137570;27;20197;-40
2021/03/10 09:49:02;;;;;;;31.87;22.90;;;;;;;;;;5137075;27;20282;-39
2021/03/10 09:51:49;;;;;;;27.90;19.70;;;;;;;;;;5137100;27;20204;-41
2021/03/10 09:54:47;;;;;;;29.07;19.77;;;;;;;;;;5132136;27;20264;-42
2021/03/10 09:57:32;;;;;;;26.20;19.23;;;;;;;;;;5117533;28;20218;-38
2021/03/10 10:00:20;;;;;;;27.83;18.57;;;;;;;;;;5117052;28;20198;-39
2021/03/10 10:03:09;;;;;;;28.60;19.83;;;;;;;;;;5115178;28;20222;-41
2021/03/10 10:06:04;;;;;;;29.60;21.07;;;;;;;;;;5117051;28;20324;-40
2021/03/10 10:08:50;;;;;;;32.27;22.03;;;;;;;;;;5114823;28;20194;-40
2021/03/10 10:11:37;;;;;;;29.50;19.73;;;;;;;;;;5115837;28;20596;-39
2021/03/10 10:14:22;;;;;;;30.07;20.93;;;;;;;;;;5116117;28;20356;-41
2021/03/10 10:17:08;;;;;;;30.47;20.27;;;;;;;;;;5116497;28;20202;-39
2021/03/10 10:19:55;;;;;;;31.47;19.07;;;;;;;;;;5116662;28;20201;-39
2021/03/10 10:22:44;;;;;;;32.53;21.37;;;;;;;;;;5114910;28;20493;-38
2021/03/10 10:25:30;;;;;;;33.10;21.07;;;;;;;;;;5115915;28;20495;-35
2021/03/10 10:28:17;;;;;;;29.17;20.23;;;;;;;;;;5115566;28;20199;-36
2021/03/10 10:31:03;;;;;;;27.70;19.77;;;;;;;;;;5115188;28;20198;-38
2021/03/10 10:33:49;;;;;;;31.73;23.83;;;;;;;;;;5115084;28;20226;-37
2021/03/10 10:36:36;;;;;;;33.07;21.63;;;;;;;;;;5115548;28;20202;-37
2021/03/10 10:39:35;;;;;;;34.63;23.23;;;;;;;;;;5118861;28;20349;-38
2021/03/10 10:42:21;;;;;;;30.83;21.77;;;;;;;;;;5116111;28;20227;-39
2021/03/10 10:45:08;;;;;;;31.57;22.20;;;;;;;;;;5115996;28;20202;-37
2021/03/10 10:47:53;;;;;;;31.87;19.63;;;;;;;;;;5116214;28;20256;-37
2021/03/10 10:50:39;;;;;;;32.00;21.93;;;;;;;;;;5115451;28;20612;-40
2021/03/10 10:53:26;;;;;;;28.60;18.50;;;;;;;;;;5115656;28;20362;-33
2021/03/10 10:56:11;;;;;;;32.77;22.10;;;;;;;;;;5116249;28;20194;-36
2021/03/10 10:58:57;;;;;;;29.43;21.53;;;;;;;;;;5115501;28;20201;-37
2021/03/10 11:01:43;;;;;;;29.23;19.67;;;;;;;;;;5119940;28;20506;-37
2021/03/10 11:04:28;;;;;;;28.83;21.33;;;;;;;;;;5138302;27;20189;-35
2021/03/10 11:07:16;;;;;;;30.73;22.27;;;;;;;;;;5141003;27;20202;-39
2021/03/10 11:10:03;;;;;;;32.37;21.27;;;;;;;;;;5140759;27;20198;-37
2021/03/10 11:12:48;;;;;;;33.63;22.17;;;;;;;;;;5140704;27;20292;-40
2021/03/10 11:15:34;;;;;;;32.97;24.33;;;;;;;;;;5140499;27;20638;-37
2021/03/10 11:18:23;;;;;;;32.27;23.43;;;;;;;;;;5140519;27;20263;-40
2021/03/10 11:21:09;;;;;;;32.77;23.33;;;;;;;;;;5140374;27;20197;-40
2021/03/10 11:23:55;;;;;;;35.23;24.17;;;;;;;;;;5140645;27;20202;-39
2021/03/10 11:26:43;;;;;;;36.50;26.30;;;;;;;;;;5140905;27;20247;-35
2021/03/10 11:29:29;;;;;;;32.83;24.07;;;;;;;;;;5141062;27;20209;-38
2021/03/10 11:32:14;;;;;;;38.10;29.33;;;;;;;;;;5140661;27;20291;-35
2021/03/10 11:35:02;;;;;;;34.53;22.67;;;;;;;;;;5139792;27;20323;-41
2021/03/10 11:37:53;;;;;;;33.50;24.00;;;;;;;;;;5140071;27;20213;-38
2021/03/10 11:40:42;;;;;;;36.80;25.13;;;;;;;;;;5140509;27;20603;-38
2021/03/10 11:43:34;;;;;;;38.67;25.57;;;;;;;;;;5139832;27;20327;-41
2021/03/10 11:46:33;;;;;;;39.67;26.10;;;;;;;;;;5139857;27;20209;-38
2021/03/10 11:49:25;;;;;;;38.90;26.77;;;;;;;;;;5139184;27;20619;-38
2021/03/10 11:52:11;;;;;;;37.40;25.80;;;;;;;;;;5140016;27;20335;-32
2021/03/10 11:54:57;;;;;;;34.97;25.43;;;;;;;;;;5139549;27;20198;-34
2021/03/10 11:57:44;;;;;;;39.47;27.00;;;;;;;;;;5134733;27;20543;-36
2021/03/10 12:00:36;;;;;;;35.83;24.47;;;;;;;;;;5119517;28;20201;-35
2021/03/10 12:03:24;;;;;;;41.17;27.73;;;;;;;;;;5119400;28;20234;-33
2021/03/10 12:06:09;;;;;;;37.00;25.50;;;;;;;;;;5118839;28;20470;-32
2021/03/10 12:08:55;;;;;;;41.33;25.97;;;;;;;;;;5118892;28;20193;-35
2021/03/10 12:11:41;;;;;;;42.73;31.23;;;;;;;;;;5118668;28;20203;-33
2021/03/10 12:14:40;;;;;;;43.40;28.20;;;;;;;;;;5119201;27;20272;-36
2021/03/10 12:17:28;;;;;;;37.37;27.23;;;;;;;;;;5130415;27;20206;-37
2021/03/10 12:20:14;;;;;;;40.63;27.27;;;;;;;;;;5119693;28;20197;-35
2021/03/10 12:23:00;;;;;;;45.57;31.27;;;;;;;;;;5138579;27;20298;-32
2021/03/10 12:25:46;;;;;;;46.63;30.57;;;;;;;;;;5139428;27;20222;-33
2021/03/10 12:28:32;;;;;;;50.00;30.17;;;;;;;;;;5138895;27;20197;-37
2021/03/10 12:31:20;;;;;;;44.13;28.20;;;;;;;;;;5139508;27;20216;-34
2021/03/10 12:34:08;;;;;;;45.73;29.50;;;;;;;;;;5139431;27;20197;-33
2021/03/10 12:37:02;;;;;;;43.17;29.00;;;;;;;;;;5139392;27;20190;-40
2021/03/10 12:39:50;;;;;;;41.97;28.50;;;;;;;;;;5139445;27;20599;-40
2021/03/10 12:42:36;;;;;;;44.33;28.97;;;;;;;;;;5138013;27;20682;-40
2021/03/10 12:45:22;;;;;;;49.23;29.20;;;;;;;;;;5139158;27;20247;-36
2021/03/10 12:48:09;;;;;;;45.87;29.63;;;;;;;;;;5138291;27;20199;-38
2021/03/10 12:50:58;;;;;;;47.87;28.67;;;;;;;;;;5138882;27;20198;-40
2021/03/10 12:53:44;;;;;;;44.70;29.67;;;;;;;;;;5138710;27;20642;-37
2021/03/10 12:56:30;;;;;;;46.03;29.00;;;;;;;;;;5138880;27;20194;-37
2021/03/10 12:59:15;;;;;;;42.30;26.53;;;;;;;;;;5138782;27;20201;-40
2021/03/10 13:02:04;;;;;;;42.70;30.07;;;;;;;;;;5138849;27;20291;-36
2021/03/10 13:04:51;;;;;;;41.47;28.40;;;;;;;;;;5138594;27;20594;-38
2021/03/10 13:07:37;;;;;;;45.83;29.63;;;;;;;;;;5138429;27;20259;-35
2021/03/10 13:10:23;;;;;;;43.97;28.67;;;;;;;;;;5138549;27;20225;-39
2021/03/10 13:13:11;;;;;;;42.30;28.37;;;;;;;;;;5138487;27;20294;-38
2021/03/10 13:15:57;;;;;;;44.30;28.30;;;;;;;;;;5138492;27;20198;-37
2021/03/10 13:18:43;;;;;;;42.20;27.17;;;;;;;;;;5137735;27;20259;-40
2021/03/10 13:21:29;;;;;;;41.60;27.80;;;;;;;;;;5138364;27;20287;-40
2021/03/10 13:24:16;;;;;;;45.30;26.93;;;;;;;;;;5138349;27;20233;-37
2021/03/10 13:27:02;;;;;;;41.27;27.07;;;;;;;;;;5138476;27;20676;-38
2021/03/10 13:29:53;;;;;;;36.03;24.70;;;;;;;;;;5139066;27;20202;-38
2021/03/10 13:32:42;;;;;;;40.30;26.87;;;;;;;;;;5137537;27;20476;-36
2021/03/10 13:35:33;;;;;;;37.70;25.03;;;;;;;;;;5126841;27;20210;-38
2021/03/10 13:38:19;;;;;;;38.10;25.27;;;;;;;;;;5116968;28;20202;-38
2021/03/10 13:41:05;;;;;;;35.23;24.43;;;;;;;;;;5117342;28;20198;-38
2021/03/10 13:43:51;;;;;;;35.50;25.40;;;;;;;;;;5117091;28;20284;-38
2021/03/10 13:46:36;;;;;;;34.00;22.60;;;;;;;;;;5117235;28;20308;-35
2021/03/10 13:49:23;;;;;;;34.93;22.53;;;;;;;;;;5117270;28;20198;-36
2021/03/10 13:52:09;;;;;;;30.47;21.87;;;;;;;;;;5117572;28;20194;-41
2021/03/10 13:54:54;;;;;;;32.23;22.40;;;;;;;;;;5117787;28;20589;-39
2021/03/10 13:57:42;;;;;;;34.80;23.67;;;;;;;;;;5115923;28;20202;-37
2021/03/10 14:00:28;;;;;;;32.00;22.47;;;;;;;;;;5116861;28;20202;-39
2021/03/10 14:03:14;;;;;;;30.30;22.47;;;;;;;;;;5116215;28;20230;-36
2021/03/10 14:06:00;;;;;;;30.83;20.17;;;;;;;;;;5115611;28;20611;-38
2021/03/10 14:08:46;;;;;;;38.17;21.77;;;;;;;;;;5116035;28;20210;-37
2021/03/10 14:11:32;;;;;;;29.73;20.57;;;;;;;;;;5116530;28;20280;-39
2021/03/10 14:14:19;;;;;;;27.73;18.97;;;;;;;;;;5116372;28;20199;-39
2021/03/10 14:17:05;;;;;;;23.07;17.97;;;;;;;;;;5116003;28;20195;-36
2021/03/10 14:19:50;;;;;;;26.80;17.37;;;;;;;;;;5116302;28;20198;-38
2021/03/10 14:22:37;;;;;;;23.50;16.20;;;;;;;;;;5119180;27;20206;-36
2021/03/10 14:25:24;;;;;;;24.10;16.40;;;;;;;;;;5119180;27;20430;-40
2021/03/10 14:28:10;;;;;;;24.03;17.00;;;;;;;;;;5118100;27;20202;-37
2021/03/10 14:30:59;;;;;;;22.30;16.20;;;;;;;;;;5130845;28;20606;-36
2021/03/10 14:33:45;;;;;;;20.77;15.70;;;;;;;;;;5127361;27;20330;-37
2021/03/10 14:36:31;;;;;;;25.37;17.20;;;;;;;;;;5115487;28;20195;-35
2021/03/10 14:39:18;;;;;;;17.70;14.60;;;;;;;;;;5123221;28;20201;-37
2021/03/10 14:42:04;;;;;;;18.87;14.10;;;;;;;;;;5134897;28;20195;-36
2021/03/10 14:44:49;;;;;;;18.03;14.50;;;;;;;;;;5136886;28;20287;-36
2021/03/10 14:47:37;;;;;;;19.93;14.73;;;;;;;;;;5137067;28;20336;-34
2021/03/10 14:50:23;;;;;;;19.97;15.00;;;;;;;;;;5136668;28;20193;-34
2021/03/10 14:53:09;;;;;;;18.83;13.30;;;;;;;;;;5136868;28;20194;-36
2021/03/10 14:55:55;;;;;;;19.33;13.23;;;;;;;;;;5136802;28;20308;-40
2021/03/10 14:58:40;;;;;;;18.67;14.30;;;;;;;;;;5137130;28;20198;-37
2021/03/10 15:01:27;;;;;;;17.47;13.27;;;;;;;;;;5137380;28;20531;-40
2021/03/10 15:04:13;;;;;;;16.37;12.57;;;;;;;;;;5133424;28;20218;-37
2021/03/10 15:06:59;;;;;;;14.97;12.47;;;;;;;;;;5117173;28;20494;-40
2021/03/10 15:09:45;;;;;;;14.47;12.33;;;;;;;;;;5119051;28;20200;-40
2021/03/10 15:12:31;;;;;;;15.30;12.13;;;;;;;;;;5138695;27;20198;-38
2021/03/10 15:15:17;;;;;;;14.17;11.70;;;;;;;;;;5136941;28;20252;-37
2021/03/10 15:18:06;;;;;;;13.40;11.03;;;;;;;;;;5136973;28;20243;-35
2021/03/10 15:20:57;;;;;;;13.47;11.37;;;;;;;;;;5135610;28;20197;-35
2021/03/10 15:23:43;;;;;;;14.40;11.17;;;;;;;;;;5137136;28;20226;-35
2021/03/10 15:26:28;;;;;;;17.63;12.17;;;;;;;;;;5136772;28;20255;-34
2021/03/10 15:29:14;;;;;;;15.53;10.13;;;;;;;;;;5136555;28;20475;-40
2021/03/10 15:32:00;;;;;;;12.33;10.57;;;;;;;;;;5136827;28;20306;-37
2021/03/10 15:34:49;;;;;;;17.77;11.37;;;;;;;;;;5130725;28;20198;-37
2021/03/10 15:37:36;;;;;;;13.90;10.40;;;;;;;;;;5136686;28;20236;-35
2021/03/10 15:40:25;;;;;;;13.33;10.07;;;;;;;;;;5137499;28;20195;-37
2021/03/10 15:43:18;;;;;;;13.37;11.00;;;;;;;;;;5136683;28;20367;-40
2021/03/10 15:46:27;;;;;;;12.80;10.20;;;;;;;;;;5121355;28;20268;-35
2021/03/10 15:49:23;;;;;;;10.77;9.63;;;;;;;;;;5115725;28;20199;-37
2021/03/10 15:52:08;;;;;;;13.47;10.17;;;;;;;;;;5118015;28;20303;-38
2021/03/10 15:54:55;;;;;;;10.47;8.83;;;;;;;;;;5119196;28;20194;-38
2021/03/10 15:57:41;;;;;;;14.40;8.87;;;;;;;;;;5119281;28;20207;-39
2021/03/10 16:00:27;;;;;;;13.57;9.63;;;;;;;;;;5119401;28;20348;-39
2021/03/10 16:03:12;;;;;;;14.37;10.13;;;;;;;;;;5133328;27;20245;-37
2021/03/10 16:05:58;;;;;;;14.73;10.90;;;;;;;;;;5134156;27;20208;-38
2021/03/10 16:08:44;;;;;;;14.80;10.87;;;;;;;;;;5119067;28;20256;-35